createdAt,value
2023-05-13T00:01:54.452Z,15.60
2023-05-13T00:04:21.317Z,15.60
2023-05-13T00:06:48.947Z,15.60
2023-05-13T00:09:16.497Z,15.50
2023-05-13T00:11:43.341Z,15.50
2023-05-13T00:14:10.925Z,15.50
2023-05-13T00:16:37.907Z,15.50
2023-05-13T00:19:04.782Z,15.50
2023-05-13T00:21:32.319Z,15.50
2023-05-13T00:23:59.249Z,15.40
2023-05-13T00:26:26.110Z,15.40
2023-05-13T00:28:52.930Z,15.40
2023-05-13T00:31:20.151Z,15.40
2023-05-13T00:33:46.934Z,15.40
2023-05-13T00:36:13.785Z,15.40
2023-05-13T00:38:40.900Z,15.30
2023-05-13T00:41:07.754Z,15.30
2023-05-13T00:43:34.505Z,15.40
2023-05-13T00:46:01.675Z,15.40
2023-05-13T00:48:28.590Z,15.40
2023-05-13T00:50:55.863Z,15.30
2023-05-13T00:53:22.786Z,15.30
2023-05-13T00:55:49.747Z,15.30
2023-05-13T00:58:18.079Z,15.30
2023-05-13T01:01:23.854Z,15.20
2023-05-13T01:04:20.915Z,15.10
2023-05-13T01:07:07.922Z,15.10
2023-05-13T01:10:12.301Z,15.10
2023-05-13T01:12:43.742Z,15.00
2023-05-13T01:15:15.246Z,14.90
2023-05-13T01:17:52.518Z,14.90
2023-05-13T01:20:23.702Z,14.80
2023-05-13T01:22:51.452Z,14.80
2023-05-13T01:25:18.329Z,14.80
2023-05-13T01:27:45.299Z,14.80
2023-05-13T01:30:12.681Z,14.80
2023-05-13T01:32:40.293Z,14.80
2023-05-13T01:35:09.528Z,14.80
2023-05-13T01:37:37.241Z,14.80
2023-05-13T01:40:17.165Z,14.90
2023-05-13T01:42:51.687Z,14.90
2023-05-13T01:45:18.729Z,14.80
2023-05-13T01:47:45.769Z,14.70
2023-05-13T01:50:12.692Z,14.70
2023-05-13T01:52:39.610Z,14.70
2023-05-13T01:55:06.616Z,14.80
2023-05-13T01:57:33.371Z,14.80
2023-05-13T02:00:00.176Z,14.70
2023-05-13T02:02:27.006Z,14.70
2023-05-13T02:04:53.832Z,14.70
2023-05-13T02:07:21.338Z,14.70
2023-05-13T02:09:48.180Z,14.60
2023-05-13T02:12:14.969Z,14.60
2023-05-13T02:14:41.731Z,14.60
2023-05-13T02:17:08.549Z,14.60
2023-05-13T02:19:35.312Z,14.60
2023-05-13T02:22:02.360Z,14.70
2023-05-13T02:24:31.069Z,14.60
2023-05-13T02:26:57.852Z,14.80
2023-05-13T02:29:24.588Z,14.60
2023-05-13T02:31:51.732Z,14.70
2023-05-13T02:34:18.644Z,14.70
2023-05-13T02:36:45.648Z,14.70
2023-05-13T02:39:12.393Z,14.80
2023-05-13T02:41:39.163Z,14.80
2023-05-13T02:44:05.908Z,14.70
2023-05-13T02:46:33.085Z,14.70
2023-05-13T02:49:00.003Z,14.70
2023-05-13T02:51:26.906Z,14.70
2023-05-13T02:53:53.747Z,14.70
2023-05-13T02:56:20.918Z,14.70
2023-05-13T02:58:47.665Z,14.70
2023-05-13T03:01:14.454Z,14.70
2023-05-13T03:03:42.364Z,14.60
2023-05-13T03:06:09.297Z,14.70
2023-05-13T03:08:36.223Z,14.70
2023-05-13T03:11:03.679Z,14.70
2023-05-13T03:13:30.446Z,14.60
2023-05-13T03:15:57.284Z,14.70
2023-05-13T03:18:24.116Z,14.70
2023-05-13T03:20:51.073Z,14.70
2023-05-13T03:23:18.093Z,14.70
2023-05-13T03:25:44.886Z,14.60
2023-05-13T03:28:11.720Z,14.60
2023-05-13T03:30:38.496Z,14.60
2023-05-13T03:33:05.521Z,14.60
2023-05-13T03:35:32.407Z,14.60
2023-05-13T03:37:59.183Z,14.60
2023-05-13T03:40:26.079Z,14.60
2023-05-13T03:42:52.920Z,14.60
2023-05-13T03:45:19.757Z,14.60
2023-05-13T03:47:46.571Z,14.50
2023-05-13T03:50:13.392Z,14.70
2023-05-13T03:52:40.436Z,14.60
2023-05-13T03:55:07.490Z,14.50
2023-05-13T03:57:34.254Z,14.50
2023-05-13T04:00:00.983Z,14.50
2023-05-13T04:02:27.898Z,14.50
2023-05-13T04:04:54.750Z,14.50
2023-05-13T04:07:21.585Z,14.50
2023-05-13T04:09:48.363Z,14.50
2023-05-13T04:12:15.811Z,14.60
2023-05-13T04:14:42.595Z,14.60
2023-05-13T04:17:09.481Z,14.50
2023-05-13T04:19:36.461Z,14.50
2023-05-13T04:22:03.546Z,14.40
2023-05-13T04:24:30.448Z,14.50
2023-05-13T04:26:58.578Z,14.50
2023-05-13T04:29:27.110Z,14.50
2023-05-13T04:31:54.037Z,14.50
2023-05-13T04:34:21.082Z,14.50
2023-05-13T04:36:48.876Z,14.60
2023-05-13T04:39:16.106Z,14.60
2023-05-13T04:41:43.088Z,14.50
2023-05-13T04:44:09.993Z,14.60
2023-05-13T04:46:40.729Z,14.50
2023-05-13T04:49:07.673Z,14.60
2023-05-13T04:51:34.837Z,14.60
2023-05-13T04:54:02.295Z,14.60
2023-05-13T04:56:29.162Z,14.60
2023-05-13T04:58:55.991Z,14.60
2023-05-13T05:01:22.865Z,14.60
2023-05-13T05:03:49.787Z,14.70
2023-05-13T05:06:16.672Z,14.70
2023-05-13T05:08:44.243Z,14.70
2023-05-13T05:11:11.268Z,14.70
2023-05-13T05:13:38.144Z,14.60
2023-05-13T05:16:05.022Z,14.70
2023-05-13T05:18:31.917Z,14.70
2023-05-13T05:21:00.501Z,14.70
2023-05-13T05:23:29.442Z,14.70
2023-05-13T05:26:10.515Z,14.70
2023-05-13T05:28:40.322Z,14.70
2023-05-13T05:31:07.342Z,14.80
2023-05-13T05:33:34.209Z,14.90
2023-05-13T05:36:01.066Z,14.80
2023-05-13T05:38:28.019Z,14.80
2023-05-13T05:40:55.166Z,14.70
2023-05-13T05:43:22.138Z,14.80
2023-05-13T05:45:49.158Z,14.80
2023-05-13T05:48:16.077Z,14.80
2023-05-13T05:50:43.094Z,15.00
2023-05-13T05:53:10.288Z,15.00
2023-05-13T05:55:37.141Z,14.90
2023-05-13T05:58:05.718Z,14.90
2023-05-13T06:00:33.382Z,15.00
2023-05-13T06:03:00.509Z,15.10
2023-05-13T06:05:27.654Z,15.00
2023-05-13T06:07:54.464Z,15.00
2023-05-13T06:10:21.521Z,15.00
2023-05-13T06:12:48.603Z,15.10
2023-05-13T06:15:15.354Z,15.20
2023-05-13T06:17:42.285Z,15.10
2023-05-13T06:20:09.505Z,15.10
2023-05-13T06:22:36.647Z,15.10
2023-05-13T06:25:03.595Z,15.20
2023-05-13T06:27:30.410Z,15.20
2023-05-13T06:29:57.624Z,15.30
2023-05-13T06:32:24.664Z,15.20
2023-05-13T06:34:54.582Z,15.20
2023-05-13T06:37:22.729Z,15.20
2023-05-13T06:39:49.690Z,15.20
2023-05-13T06:42:16.460Z,15.20
2023-05-13T06:44:43.288Z,15.30
2023-05-13T06:47:14.872Z,15.20
2023-05-13T06:49:42.332Z,15.20
2023-05-13T06:52:09.991Z,15.10
2023-05-13T06:54:37.348Z,15.20
2023-05-13T06:57:07.445Z,15.20
2023-05-13T06:59:35.131Z,15.20
2023-05-13T07:02:01.911Z,15.30
2023-05-13T07:04:30.474Z,15.30
2023-05-13T07:06:57.764Z,15.30
2023-05-13T07:09:24.600Z,15.40
2023-05-13T07:11:54.783Z,15.30
2023-05-13T07:14:21.842Z,15.30
2023-05-13T07:16:48.625Z,15.40
2023-05-13T07:19:15.409Z,15.40
2023-05-13T07:21:42.348Z,15.40
2023-05-13T07:24:09.541Z,15.30
2023-05-13T07:26:36.371Z,15.40
2023-05-13T07:29:03.191Z,15.40
2023-05-13T07:31:30.911Z,15.40
2023-05-13T07:33:58.124Z,15.40
2023-05-13T07:36:25.070Z,15.40
2023-05-13T07:38:51.852Z,15.40
2023-05-13T07:41:18.774Z,15.40
2023-05-13T07:43:45.604Z,15.50
2023-05-13T07:46:12.539Z,15.50
2023-05-13T07:48:39.357Z,15.50
2023-05-13T07:51:06.198Z,15.50
2023-05-13T07:53:33.093Z,15.50
2023-05-13T07:55:59.930Z,15.50
2023-05-13T07:58:26.755Z,15.50
2023-05-13T08:00:53.702Z,15.50
2023-05-13T08:03:20.670Z,15.50
2023-05-13T08:05:48.161Z,15.50
2023-05-13T08:08:15.129Z,15.60
2023-05-13T08:10:41.889Z,15.60
2023-05-13T08:13:08.631Z,15.60
2023-05-13T08:15:37.059Z,15.60
2023-05-13T08:18:04.077Z,15.60
2023-05-13T08:20:31.248Z,15.60
2023-05-13T08:22:58.639Z,15.70
2023-05-13T08:25:25.632Z,15.70
2023-05-13T08:27:52.497Z,15.70
2023-05-13T08:30:19.362Z,15.70
2023-05-13T08:32:49.432Z,15.70
2023-05-13T08:35:16.327Z,15.80
2023-05-13T08:37:43.107Z,15.80
2023-05-13T08:40:11.077Z,15.80
2023-05-13T08:42:42.570Z,15.80
2023-05-13T08:45:10.957Z,15.80
2023-05-13T08:47:56.631Z,15.70
2023-05-13T08:50:23.777Z,15.70
2023-05-13T08:52:53.607Z,15.70
2023-05-13T08:55:21.464Z,15.70
2023-05-13T08:57:48.351Z,15.80
2023-05-13T09:00:16.903Z,15.80
2023-05-13T09:02:44.629Z,15.80
2023-05-13T09:05:12.108Z,15.80
2023-05-13T09:07:39.764Z,15.80
2023-05-13T09:10:07.810Z,15.90
2023-05-13T09:12:54.875Z,15.90
2023-05-13T09:15:26.743Z,15.90
2023-05-13T09:18:02.609Z,15.90
2023-05-13T09:20:30.076Z,16.00
2023-05-13T09:23:00.603Z,16.00
2023-05-13T09:25:28.734Z,16.10
2023-05-13T09:28:01.973Z,16.00
2023-05-13T09:30:42.625Z,16.10
2023-05-13T09:33:16.704Z,16.10
2023-05-13T09:35:54.502Z,16.10
2023-05-13T09:38:29.379Z,16.10
2023-05-13T09:41:00.934Z,16.20
2023-05-13T09:43:39.912Z,16.20
2023-05-13T09:46:09.305Z,16.20
2023-05-13T09:48:38.196Z,16.20
2023-05-13T09:51:05.744Z,16.20
2023-05-13T09:53:32.965Z,16.10
2023-05-13T09:56:00.621Z,16.20
2023-05-13T09:58:29.229Z,16.20
2023-05-13T10:00:57.059Z,16.20
2023-05-13T10:03:25.079Z,16.20
2023-05-13T10:05:53.808Z,16.20
2023-05-13T10:08:22.103Z,16.10
2023-05-13T10:10:50.980Z,16.10
2023-05-13T10:13:23.398Z,16.10
2023-05-13T10:15:57.540Z,16.20
2023-05-13T10:18:24.614Z,17.60
2023-05-13T10:20:54.883Z,16.20
2023-05-13T10:23:24.504Z,16.20
2023-05-13T10:25:54.324Z,15.40
2023-05-13T10:28:21.479Z,16.10
2023-05-13T10:30:50.290Z,16.10
2023-05-13T10:33:18.099Z,16.20
2023-05-13T10:35:56.722Z,16.20
2023-05-13T10:38:48.352Z,16.30
2023-05-13T10:41:49.600Z,16.30
2023-05-13T10:44:19.538Z,16.30
2023-05-13T10:46:48.752Z,16.20
2023-05-13T10:49:16.240Z,16.30
2023-05-13T10:51:47.525Z,16.30
2023-05-13T10:54:23.070Z,16.30
2023-05-13T10:56:57.707Z,16.40
2023-05-13T10:59:24.606Z,16.40
2023-05-13T11:01:51.543Z,16.40
2023-05-13T11:04:20.533Z,16.40
2023-05-13T11:06:49.633Z,16.40
2023-05-13T11:09:31.329Z,16.40
2023-05-13T11:12:03.551Z,16.40
2023-05-13T11:14:33.608Z,16.40
2023-05-13T11:17:00.376Z,16.40
2023-05-13T11:19:29.920Z,16.40
2023-05-13T11:21:58.929Z,16.50
2023-05-13T11:24:26.856Z,16.50
2023-05-13T11:26:58.915Z,16.60
2023-05-13T11:29:33.948Z,16.60
2023-05-13T11:32:03.144Z,16.50
2023-05-13T11:34:32.545Z,16.60
2023-05-13T11:37:05.361Z,16.60
2023-05-13T11:39:33.312Z,16.60
2023-05-13T11:42:05.173Z,16.50
2023-05-13T11:44:34.492Z,16.50
2023-05-13T11:47:03.755Z,16.50
2023-05-13T11:49:41.613Z,16.50
2023-05-13T11:52:09.756Z,16.50
2023-05-13T11:54:48.917Z,16.50
2023-05-13T11:57:23.897Z,16.50
2023-05-13T11:59:51.547Z,16.50
2023-05-13T12:02:21.806Z,16.50
2023-05-13T12:04:49.105Z,16.50
2023-05-13T12:07:23.772Z,16.60
2023-05-13T12:09:51.870Z,16.60
2023-05-13T12:12:19.885Z,16.60
2023-05-13T12:14:50.242Z,16.70
2023-05-13T12:17:18.109Z,16.70
2023-05-13T12:20:07.321Z,16.70
2023-05-13T12:22:43.785Z,16.70
2023-05-13T12:25:38.622Z,16.70
2023-05-13T12:28:18.699Z,16.70
2023-05-13T12:31:03.127Z,16.70
2023-05-13T12:33:30.886Z,16.70
2023-05-13T12:36:21.775Z,16.70
2023-05-13T12:39:02.222Z,16.70
2023-05-13T12:41:31.299Z,16.70
2023-05-13T12:44:02.468Z,16.80
2023-05-13T12:46:29.759Z,16.80
2023-05-13T12:48:59.021Z,16.70
2023-05-13T12:51:25.877Z,16.70
2023-05-13T12:53:54.482Z,16.70
2023-05-13T12:56:25.430Z,16.80
2023-05-13T12:58:54.141Z,16.80
2023-05-13T13:01:21.604Z,16.70
2023-05-13T13:03:48.616Z,16.80
2023-05-13T13:06:15.969Z,16.80
2023-05-13T13:08:42.842Z,16.80
2023-05-13T13:11:09.961Z,16.80
2023-05-13T13:13:38.910Z,16.80
2023-05-13T13:16:06.641Z,16.80
2023-05-13T13:18:33.584Z,16.80
2023-05-13T13:21:00.604Z,16.70
2023-05-13T13:23:27.454Z,16.70
2023-05-13T13:25:54.317Z,16.80
2023-05-13T13:28:21.114Z,16.70
2023-05-13T13:30:47.921Z,16.70
2023-05-13T13:33:16.002Z,16.70
2023-05-13T13:35:49.786Z,16.70
2023-05-13T13:38:16.539Z,16.70
2023-05-13T13:40:43.353Z,16.70
2023-05-13T13:43:10.210Z,16.70
2023-05-13T13:45:37.212Z,16.70
2023-05-13T13:48:04.107Z,16.70
2023-05-13T13:50:30.957Z,16.70
2023-05-13T13:52:57.764Z,16.70
2023-05-13T13:55:25.045Z,16.70
2023-05-13T13:57:52.214Z,16.80
2023-05-13T14:00:19.657Z,16.80
2023-05-13T14:02:46.709Z,16.80
2023-05-13T14:05:14.003Z,16.80
2023-05-13T14:07:41.183Z,16.70
2023-05-13T14:10:08.788Z,16.70
2023-05-13T14:12:38.446Z,16.70
2023-05-13T14:15:05.958Z,16.70
2023-05-13T14:17:33.407Z,16.80
2023-05-13T14:20:00.319Z,16.80
2023-05-13T14:22:27.233Z,16.90
2023-05-13T14:24:54.442Z,17.00
2023-05-13T14:27:24.555Z,17.10
2023-05-13T14:29:52.047Z,17.10
2023-05-13T14:32:18.947Z,17.10
2023-05-13T14:34:46.212Z,17.10
2023-05-13T14:37:13.171Z,17.10
2023-05-13T14:39:40.008Z,17.20
2023-05-13T14:42:06.973Z,17.10
2023-05-13T14:44:33.894Z,17.10
2023-05-13T14:47:01.209Z,17.10
2023-05-13T14:49:28.123Z,17.10
2023-05-13T14:51:54.937Z,17.20
2023-05-13T14:54:22.188Z,17.20
2023-05-13T14:56:49.392Z,17.10
2023-05-13T14:59:16.312Z,17.10
2023-05-13T15:01:43.177Z,17.10
2023-05-13T15:04:09.980Z,17.00
2023-05-13T15:06:38.382Z,17.00
2023-05-13T15:09:06.313Z,17.00
2023-05-13T15:11:33.482Z,17.00
2023-05-13T15:14:01.300Z,17.00
2023-05-13T15:16:28.090Z,17.00
2023-05-13T15:18:54.951Z,17.10
2023-05-13T15:21:21.731Z,17.00
2023-05-13T15:23:48.700Z,17.00
2023-05-13T15:26:15.764Z,17.10
2023-05-13T15:28:42.552Z,17.00
2023-05-13T15:31:09.360Z,17.10
2023-05-13T15:33:36.109Z,17.20
2023-05-13T15:36:03.420Z,17.20
2023-05-13T15:38:30.633Z,17.30
2023-05-13T15:40:57.500Z,17.30
2023-05-13T15:43:24.375Z,17.30
2023-05-13T15:45:51.259Z,17.30
2023-05-13T15:48:18.366Z,17.30
2023-05-13T15:50:45.729Z,18.20
2023-05-13T15:53:12.586Z,17.30
2023-05-13T15:55:39.601Z,17.40
2023-05-13T15:58:07.078Z,17.40
2023-05-13T16:00:34.097Z,17.40
2023-05-13T16:03:01.633Z,17.30
2023-05-13T16:05:28.946Z,17.30
2023-05-13T16:07:57.267Z,17.30
2023-05-13T16:10:24.650Z,17.30
2023-05-13T16:12:51.667Z,17.30
2023-05-13T16:15:18.498Z,17.40
2023-05-13T16:17:45.470Z,17.40
2023-05-13T16:20:13.325Z,17.40
2023-05-13T16:22:40.436Z,17.40
2023-05-13T16:25:08.986Z,17.40
2023-05-13T16:27:36.754Z,17.40
2023-05-13T16:30:05.311Z,17.40
2023-05-13T16:32:33.067Z,17.40
2023-05-13T16:35:01.486Z,17.50
2023-05-13T16:37:28.591Z,17.50
2023-05-13T16:39:55.515Z,17.50
2023-05-13T16:42:22.677Z,17.50
2023-05-13T16:44:49.598Z,17.50
2023-05-13T16:47:16.408Z,17.50
2023-05-13T16:49:43.321Z,17.50
2023-05-13T16:52:10.135Z,17.50
2023-05-13T16:54:37.102Z,17.50
2023-05-13T16:57:04.017Z,17.50
2023-05-13T16:59:30.770Z,17.50
2023-05-13T17:01:59.865Z,17.60
2023-05-13T17:04:28.326Z,17.60
2023-05-13T17:06:58.268Z,17.60
2023-05-13T17:09:26.249Z,17.60
2023-05-13T17:11:54.623Z,17.60
2023-05-13T17:14:21.808Z,17.60
2023-05-13T17:16:48.902Z,17.60
2023-05-13T17:19:16.001Z,17.60
2023-05-13T17:21:42.903Z,17.60
2023-05-13T17:24:10.005Z,17.60
2023-05-13T17:26:38.573Z,17.60
2023-05-13T17:29:06.284Z,17.60
2023-05-13T17:31:33.770Z,17.60
2023-05-13T17:34:00.772Z,17.60
2023-05-13T17:36:27.684Z,17.60
2023-05-13T17:38:54.615Z,17.60
2023-05-13T17:41:21.737Z,17.60
2023-05-13T17:43:48.559Z,17.60
2023-05-13T17:46:15.687Z,17.60
2023-05-13T17:48:42.803Z,17.60
2023-05-13T17:51:10.734Z,17.50
2023-05-13T17:53:37.551Z,17.50
2023-05-13T17:56:04.581Z,17.50
2023-05-13T17:58:31.400Z,17.50
2023-05-13T18:00:58.331Z,17.50
2023-05-13T18:03:25.298Z,17.40
2023-05-13T18:05:52.328Z,17.50
2023-05-13T18:08:19.097Z,17.50
2023-05-13T18:10:46.773Z,17.50
2023-05-13T18:13:13.681Z,17.60
2023-05-13T18:15:40.739Z,17.50
2023-05-13T18:18:07.782Z,17.50
2023-05-13T18:20:34.668Z,17.50
2023-05-13T18:23:01.492Z,17.60
2023-05-13T18:25:28.325Z,17.60
2023-05-13T18:27:55.092Z,17.60
2023-05-13T18:30:22.047Z,17.60
2023-05-13T18:32:49.070Z,17.60
2023-05-13T18:35:16.335Z,17.60
2023-05-13T18:37:43.341Z,17.50
2023-05-13T18:40:13.472Z,17.50
2023-05-13T18:42:40.308Z,17.50
2023-05-13T18:45:10.267Z,17.50
2023-05-13T18:47:37.303Z,17.50
2023-05-13T18:50:04.311Z,17.50
2023-05-13T18:52:31.126Z,17.50
2023-05-13T18:55:00.632Z,17.50
2023-05-13T18:57:27.653Z,17.40
2023-05-13T18:59:54.465Z,17.40
2023-05-13T19:02:21.845Z,17.40
2023-05-13T19:04:48.849Z,17.40
2023-05-13T19:07:15.595Z,17.30
2023-05-13T19:09:42.443Z,17.30
2023-05-13T19:12:09.270Z,17.30
2023-05-13T19:14:36.021Z,17.30
2023-05-13T19:17:03.161Z,17.40
2023-05-13T19:19:30.126Z,17.40
2023-05-13T19:21:56.929Z,17.40
2023-05-13T19:24:23.653Z,17.40
2023-05-13T19:26:50.665Z,17.30
2023-05-13T19:29:17.426Z,17.30
2023-05-13T19:31:45.183Z,17.20
2023-05-13T19:34:12.008Z,17.10
2023-05-13T19:36:38.897Z,17.10
2023-05-13T19:39:05.634Z,16.90
2023-05-13T19:41:34.495Z,16.80
2023-05-13T19:44:01.475Z,16.80
2023-05-13T19:46:28.688Z,16.70
2023-05-13T19:48:55.424Z,16.70
2023-05-13T19:51:22.190Z,16.70
2023-05-13T19:53:49.005Z,16.70
2023-05-13T19:56:15.880Z,16.70
2023-05-13T19:58:42.676Z,16.70
2023-05-13T20:01:11.849Z,16.70
2023-05-13T20:03:38.799Z,16.70
2023-05-13T20:06:05.740Z,16.70
2023-05-13T20:08:33.327Z,16.80
2023-05-13T20:11:00.132Z,16.70
2023-05-13T20:13:26.914Z,16.70
2023-05-13T20:15:53.655Z,16.80
2023-05-13T20:18:21.104Z,16.70
2023-05-13T20:20:48.112Z,16.70
2023-05-13T20:23:14.914Z,16.70
2023-05-13T20:25:41.703Z,16.70
2023-05-13T20:28:08.563Z,16.70
2023-05-13T20:30:35.531Z,16.70
2023-05-13T20:33:02.407Z,16.70
2023-05-13T20:35:29.301Z,16.70
2023-05-13T20:37:57.313Z,16.70
2023-05-13T20:40:24.560Z,16.70
2023-05-13T20:42:51.719Z,16.60
2023-05-13T20:45:18.578Z,16.70
2023-05-13T20:47:45.312Z,16.70
2023-05-13T20:50:12.456Z,16.70
2023-05-13T20:52:39.430Z,16.70
2023-05-13T20:55:06.824Z,16.80
2023-05-13T20:57:33.707Z,16.80
2023-05-13T21:00:00.475Z,16.80
2023-05-13T21:02:27.324Z,16.70
2023-05-13T21:04:54.170Z,16.70
2023-05-13T21:07:21.054Z,16.70
2023-05-13T21:09:47.899Z,16.60
2023-05-13T21:12:14.884Z,16.60
2023-05-13T21:14:41.703Z,16.60
2023-05-13T21:17:08.887Z,16.60
2023-05-13T21:19:35.654Z,16.60
2023-05-13T21:22:05.253Z,16.60
2023-05-13T21:24:32.469Z,16.60
2023-05-13T21:26:59.519Z,16.70
2023-05-13T21:29:26.294Z,16.70
2023-05-13T21:31:53.416Z,16.60
2023-05-13T21:34:20.268Z,16.60
2023-05-13T21:36:47.144Z,16.50
2023-05-13T21:39:13.984Z,16.50
2023-05-13T21:41:40.860Z,16.50
2023-05-13T21:44:07.647Z,16.50
2023-05-13T21:46:34.471Z,16.50
2023-05-13T21:49:01.752Z,16.40
2023-05-13T21:51:29.159Z,16.30
2023-05-13T21:53:55.928Z,16.40
2023-05-13T21:56:22.713Z,16.40
2023-05-13T21:58:50.180Z,16.40
2023-05-13T22:01:17.085Z,16.40
2023-05-13T22:03:43.922Z,16.40
2023-05-13T22:06:10.706Z,16.50
2023-05-13T22:08:37.453Z,16.50
2023-05-13T22:11:04.284Z,16.40
2023-05-13T22:13:31.134Z,16.30
2023-05-13T22:15:57.954Z,16.30
2023-05-13T22:18:25.054Z,16.30
2023-05-13T22:20:52.195Z,16.30
2023-05-13T22:23:19.060Z,16.40
2023-05-13T22:25:45.804Z,16.40
2023-05-13T22:28:13.083Z,16.30
2023-05-13T22:30:39.926Z,16.30
2023-05-13T22:33:06.846Z,16.30
2023-05-13T22:35:36.466Z,16.30
2023-05-13T22:38:06.712Z,16.40
2023-05-13T22:40:33.814Z,16.30
2023-05-13T22:43:00.692Z,16.30
2023-05-13T22:45:27.483Z,16.30
2023-05-13T22:47:56.016Z,16.30
2023-05-13T22:50:23.245Z,16.20
2023-05-13T22:52:50.524Z,16.20
2023-05-13T22:55:17.347Z,16.10
2023-05-13T22:57:44.092Z,16.10
2023-05-13T23:00:12.967Z,16.10
2023-05-13T23:02:40.054Z,16.10
2023-05-13T23:05:07.434Z,16.20
2023-05-13T23:07:34.235Z,16.20
2023-05-13T23:10:01.065Z,16.20
2023-05-13T23:12:29.008Z,16.20
2023-05-13T23:14:55.882Z,16.20
2023-05-13T23:17:22.703Z,16.20
2023-05-13T23:19:49.566Z,16.20
2023-05-13T23:22:16.371Z,16.20
2023-05-13T23:24:43.139Z,16.30
2023-05-13T23:27:10.347Z,16.30
2023-05-13T23:29:37.124Z,16.20
2023-05-13T23:32:05.827Z,16.20
2023-05-13T23:34:33.595Z,16.20
2023-05-13T23:37:00.364Z,16.20
2023-05-13T23:39:27.087Z,16.20
2023-05-13T23:41:53.878Z,16.20
2023-05-13T23:44:20.669Z,16.20
2023-05-13T23:46:47.475Z,16.20
2023-05-13T23:49:14.230Z,16.10
2023-05-13T23:51:41.010Z,16.10
2023-05-13T23:54:08.354Z,16.10
2023-05-13T23:56:35.555Z,16.20
2023-05-13T23:59:02.541Z,16.10
